Time;durP1;ratioP1;P1;durP2;ratioP2;P2;SDS_P1;SDS_P2;PMS_P1;PMS_P2;Temp;Humidity;BMP_temperature;BMP_pressure;BME280_temperature;BME280_humidity;BME280_pressure;Samples;Min_cycle;Max_cycle;Signal;HPM_P1;HPM_P2
2024/01/12 00:01:30;;;;;;;12.53;2.50;;;27.10;99.90;;;;;;4973796;28;20218;-70
2024/01/12 00:03:57;;;;;;;5.03;1.80;;;27.10;99.90;;;;;;4965372;28;20191;-76
2024/01/12 00:06:24;;;;;;;7.53;1.90;;;27.10;99.90;;;;;;4966782;28;20180;-73
2024/01/12 00:08:52;;;;;;;9.97;1.67;;;26.90;99.90;;;;;;4974593;28;20274;-74
2024/01/12 00:11:19;;;;;;;8.37;1.50;;;26.80;99.90;;;;;;4971662;28;20186;-71
2024/01/12 00:13:46;;;;;;;9.30;2.10;;;26.60;99.90;;;;;;4958058;28;20239;-72
2024/01/12 00:16:16;;;;;;;8.23;1.50;;;26.90;99.90;;;;;;4960192;28;20192;-72
2024/01/12 00:18:44;;;;;;;10.30;1.80;;;27.10;99.90;;;;;;4964251;28;20220;-71
2024/01/12 00:21:11;;;;;;;10.33;2.37;;;27.20;99.90;;;;;;4955351;28;20266;-70
2024/01/12 00:23:38;;;;;;;9.80;1.63;;;27.00;99.90;;;;;;4953527;29;20195;-74
2024/01/12 00:26:05;;;;;;;11.87;2.13;;;27.00;99.90;;;;;;4955241;29;20307;-70
2024/01/12 00:28:33;;;;;;;12.47;2.70;;;27.10;99.90;;;;;;4954149;28;20274;-77
2024/01/12 00:31:00;;;;;;;10.70;2.23;;;27.00;99.90;;;;;;4960872;28;20266;-75
2024/01/12 00:36:53;;;;;;;11.17;1.90;;;27.10;99.90;;;;;;4973841;28;20187;-71
2024/01/12 00:39:21;;;;;;;13.37;2.60;;;27.10;99.90;;;;;;4962638;28;20229;-73
2024/01/12 00:41:50;;;;;;;11.90;2.10;;;27.30;99.90;;;;;;4955225;28;20611;-75
2024/01/12 00:44:21;;;;;;;8.57;1.90;;;27.60;99.90;;;;;;4961938;28;20180;-76
2024/01/12 00:46:52;;;;;;;7.97;1.47;;;27.80;99.90;;;;;;4962949;28;20184;-77
2024/01/12 00:49:20;;;;;;;8.67;2.17;;;27.70;99.90;;;;;;4963988;28;20187;-76
2024/01/12 00:51:48;;;;;;;7.77;1.63;;;27.60;99.90;;;;;;4963144;28;20179;-77
2024/01/12 00:54:16;;;;;;;7.60;1.53;;;27.10;99.90;;;;;;4962327;28;20191;-74
2024/01/12 00:56:43;;;;;;;7.53;1.90;;;26.50;99.90;;;;;;4961996;28;20186;-79
2024/01/12 00:59:11;;;;;;;4.93;1.20;;;25.90;99.90;;;;;;4960910;28;20239;-73
2024/01/12 01:04:41;;;;;;;5.63;1.07;;;25.10;99.90;;;;;;4973399;28;20226;-70
2024/01/12 01:07:08;;;;;;;7.60;1.80;;;24.60;99.90;;;;;;4988309;28;20337;-78
2024/01/12 01:09:36;;;;;;;4.93;1.37;;;24.70;99.90;;;;;;4969504;28;20189;-79
2024/01/12 01:12:03;;;;;;;6.97;1.63;;;24.70;99.90;;;;;;4972234;28;20234;-72
2024/01/12 01:14:30;;;;;;;5.17;1.53;;;24.80;99.90;;;;;;4973194;28;20529;-74
2024/01/12 01:16:58;;;;;;;7.57;1.97;;;25.00;99.90;;;;;;4973525;28;20560;-78
2024/01/12 01:19:25;;;;;;;3.67;1.50;;;25.20;99.90;;;;;;4973766;28;20362;-77
2024/01/12 01:21:53;;;;;;;9.43;1.87;;;25.40;99.90;;;;;;4971335;28;20234;-71
2024/01/12 01:24:20;;;;;;;9.47;1.87;;;25.60;99.90;;;;;;4973628;28;20731;-76
2024/01/12 01:26:47;;;;;;;6.53;1.80;;;25.80;99.90;;;;;;4973612;28;20262;-78
2024/01/12 01:29:15;;;;;;;4.03;1.40;;;26.20;99.90;;;;;;4962876;28;20619;-68
2024/01/12 01:31:42;;;;;;;4.30;1.40;;;26.40;99.90;;;;;;4970608;28;20742;-71
2024/01/12 01:34:09;;;;;;;9.47;1.40;;;26.50;99.90;;;;;;4973391;28;20179;-72
2024/01/12 01:36:37;;;;;;;5.30;1.83;;;26.60;99.90;;;;;;4973185;28;20179;-71
2024/01/12 01:39:04;;;;;;;8.03;1.80;;;27.10;99.90;;;;;;4972996;28;20215;-77
2024/01/12 01:41:31;;;;;;;7.70;1.50;;;27.50;99.90;;;;;;4972117;28;20176;-78
2024/01/12 01:43:58;;;;;;;8.40;1.60;;;28.10;99.90;;;;;;4967206;28;20195;-75
2024/01/12 01:46:26;;;;;;;8.40;1.60;;;28.50;99.90;;;;;;4953824;28;20179;-71
2024/01/12 01:48:54;;;;;;;9.50;1.90;;;28.70;99.90;;;;;;4953606;28;20215;-73
2024/01/12 01:51:24;;;;;;;6.23;1.40;;;28.80;99.90;;;;;;4952336;28;20652;-73
2024/01/12 01:53:52;;;;;;;7.23;1.53;;;29.00;99.90;;;;;;4953519;28;20242;-74
2024/01/12 01:56:22;;;;;;;8.00;1.13;;;29.20;99.90;;;;;;4954050;28;20973;-74
2024/01/12 01:58:50;;;;;;;4.03;1.20;;;28.60;99.90;;;;;;4953482;28;20266;-72
2024/01/12 02:01:20;;;;;;;4.97;1.20;;;27.90;99.90;;;;;;4953720;28;20267;-76
2024/01/12 02:03:48;;;;;;;6.67;2.00;;;27.40;99.90;;;;;;4953489;28;20645;-74
2024/01/12 02:06:16;;;;;;;7.40;1.90;;;26.60;99.90;;;;;;4953448;28;20183;-72
2024/01/12 02:08:44;;;;;;;15.50;2.13;;;25.90;99.90;;;;;;4956586;28;20215;-78
2024/01/12 02:14:33;;;;;;;10.67;1.93;;;25.90;99.90;;;;;;4952684;29;20737;-75
2024/01/12 02:17:00;;;;;;;6.17;1.90;;;26.30;99.90;;;;;;4953747;28;20186;-78
2024/01/12 02:19:28;;;;;;;6.07;1.60;;;26.30;99.90;;;;;;4953571;28;20247;-79
2024/01/12 02:21:55;;;;;;;10.23;1.83;;;26.80;99.90;;;;;;4954041;28;20223;-77
2024/01/12 02:24:22;;;;;;;7.37;1.97;;;27.20;99.90;;;;;;4953752;28;20606;-77
2024/01/12 02:26:50;;;;;;;4.13;1.73;;;27.50;99.90;;;;;;4963543;28;20183;-71
2024/01/12 02:32:39;;;;;;;6.40;1.80;;;28.40;99.90;;;;;;4957746;28;20202;-74
2024/01/12 02:35:07;;;;;;;10.20;1.67;;;28.40;99.90;;;;;;4953321;28;20184;-74
2024/01/12 02:37:34;;;;;;;8.43;2.17;;;28.80;99.90;;;;;;4952923;28;20196;-74
2024/01/12 02:40:02;;;;;;;6.53;1.37;;;29.40;99.90;;;;;;4953454;28;20266;-76
2024/01/12 02:42:29;;;;;;;10.30;1.60;;;29.90;99.90;;;;;;4965323;28;20218;-74
2024/01/12 02:44:56;;;;;;;10.47;1.77;;;30.10;99.90;;;;;;4972273;28;20190;-77
2024/01/12 02:47:24;;;;;;;8.03;1.73;;;29.80;99.90;;;;;;4972464;28;20199;-75
2024/01/12 02:49:51;;;;;;;5.13;1.67;;;29.40;99.90;;;;;;4962441;28;20195;-76
2024/01/12 02:52:18;;;;;;;7.97;1.23;;;29.50;99.90;;;;;;4962591;28;20199;-74
2024/01/12 02:54:46;;;;;;;3.33;1.20;;;29.50;99.90;;;;;;4972664;28;20187;-75
2024/01/12 02:57:13;;;;;;;5.63;1.50;;;29.80;99.90;;;;;;4974488;28;20245;-75
2024/01/12 02:59:41;;;;;;;7.37;1.40;;;29.80;99.90;;;;;;4975731;28;20268;-74
2024/01/12 03:02:08;;;;;;;9.73;1.80;;;30.00;99.90;;;;;;4967470;28;20553;-80
2024/01/12 03:04:35;;;;;;;8.67;1.57;;;29.90;99.90;;;;;;4957079;28;20184;-77
2024/01/12 03:07:03;;;;;;;7.13;2.07;;;29.60;99.90;;;;;;4956583;28;20234;-76
2024/01/12 03:09:30;;;;;;;6.73;1.37;;;29.90;99.90;;;;;;4956896;28;20168;-76
2024/01/12 03:11:57;;;;;;;8.17;1.37;;;30.20;99.90;;;;;;4963572;28;20190;-76
2024/01/12 03:14:24;;;;;;;5.67;1.43;;;30.70;99.90;;;;;;4975623;28;20266;-74
2024/01/12 03:16:52;;;;;;;3.20;0.97;;;31.00;99.90;;;;;;4973944;28;20183;-75
2024/01/12 03:19:19;;;;;;;4.83;1.20;;;30.90;99.90;;;;;;4956640;28;20279;-73
2024/01/12 03:21:46;;;;;;;6.17;1.20;;;31.00;99.90;;;;;;4961246;28;20215;-76
2024/01/12 03:24:13;;;;;;;5.87;0.93;;;31.00;99.90;;;;;;4975794;28;20568;-71
2024/01/12 03:26:41;;;;;;;3.72;0.98;;;30.80;99.90;;;;;;4975474;28;20188;-75
2024/01/12 03:29:08;;;;;;;6.17;1.40;;;31.00;99.90;;;;;;4975294;28;20179;-76
2024/01/12 03:31:35;;;;;;;4.63;1.13;;;31.10;99.90;;;;;;4971825;28;20180;-77
2024/01/12 03:34:03;;;;;;;5.33;1.27;;;31.00;99.90;;;;;;4956532;28;20180;-77
2024/01/12 03:36:31;;;;;;;9.40;1.73;;;31.40;99.90;;;;;;4955984;28;20184;-80
2024/01/12 03:38:58;;;;;;;4.00;1.47;;;31.60;99.90;;;;;;4956317;28;20605;-79
2024/01/12 03:41:25;;;;;;;8.68;1.52;;;31.70;99.90;;;;;;4956690;28;20566;-78
2024/01/12 03:43:53;;;;;;;6.73;1.33;;;31.60;99.90;;;;;;4974990;28;20187;-74
2024/01/12 03:46:20;;;;;;;6.57;1.47;;;31.50;99.90;;;;;;4962020;28;20573;-75
2024/01/12 03:48:52;;;;;;;6.78;1.30;;;31.70;99.90;;;;;;4956192;28;20665;-75
2024/01/12 03:51:19;;;;;;;3.63;1.20;;;31.80;99.90;;;;;;4958782;28;20203;-80
2024/01/12 03:53:46;;;;;;;5.10;1.45;;;32.00;99.90;;;;;;4975362;28;20181;-77
2024/01/12 03:56:14;;;;;;;7.18;1.60;;;32.00;99.90;;;;;;4974999;28;20167;-77
2024/01/12 03:58:41;;;;;;;5.30;1.35;;;32.10;99.90;;;;;;4974727;28;20666;-75
2024/01/12 04:01:09;;;;;;;3.70;1.20;;;32.20;99.90;;;;;;4973100;28;20241;-75
2024/01/12 04:03:37;;;;;;;8.43;1.42;;;32.40;99.90;;;;;;4955853;28;20256;-77
2024/01/12 04:06:11;;;;;;;4.13;0.90;;;32.30;99.90;;;;;;4954170;28;20196;-73
2024/01/12 04:08:38;;;;;;;9.82;1.60;;;32.20;99.90;;;;;;4955536;28;20183;-74
2024/01/12 04:11:06;;;;;;;5.07;1.05;;;32.30;99.90;;;;;;4958662;28;20190;-73
2024/01/12 04:16:55;;;;;;;4.70;1.20;;;32.00;99.90;;;;;;4974170;28;20191;-77
2024/01/12 04:19:23;;;;;;;5.72;1.52;;;32.00;99.90;;;;;;4975136;28;20246;-75
2024/01/12 04:21:50;;;;;;;10.48;1.58;;;32.10;99.90;;;;;;4973418;28;20279;-78
2024/01/12 04:24:17;;;;;;;4.65;1.15;;;32.30;99.90;;;;;;4975304;28;20270;-75
2024/01/12 04:26:45;;;;;;;8.07;2.08;;;32.60;99.90;;;;;;4974946;28;20266;-74
2024/01/12 04:29:12;;;;;;;8.35;1.60;;;32.60;99.90;;;;;;4972601;28;20703;-73
2024/01/12 04:31:43;;;;;;;5.50;1.38;;;32.20;99.90;;;;;;4967530;28;20211;-73
2024/01/12 04:34:10;;;;;;;3.58;1.00;;;32.40;99.90;;;;;;4974530;28;20278;-73
2024/01/12 04:36:38;;;;;;;10.25;1.30;;;32.30;99.90;;;;;;4968210;28;20194;-75
2024/01/12 04:39:05;;;;;;;4.90;1.52;;;32.50;99.90;;;;;;4969111;28;20223;-73
2024/01/12 04:41:32;;;;;;;6.63;1.40;;;32.30;99.90;;;;;;4971216;28;20186;-74
2024/01/12 04:44:00;;;;;;;5.43;1.30;;;32.30;99.90;;;;;;4973975;28;20183;-74
2024/01/12 04:46:28;;;;;;;5.00;1.20;;;32.30;99.90;;;;;;4959730;28;20548;-73
2024/01/12 04:48:55;;;;;;;8.63;1.80;;;32.30;99.90;;;;;;4955074;28;20246;-72
2024/01/12 04:51:23;;;;;;;7.18;1.65;;;32.50;99.90;;;;;;4968292;28;20226;-74
2024/01/12 04:53:50;;;;;;;5.05;1.50;;;32.40;99.90;;;;;;4959320;28;20208;-74
2024/01/12 04:56:18;;;;;;;4.78;1.42;;;32.50;99.90;;;;;;4956005;28;20259;-75
2024/01/12 04:58:45;;;;;;;7.80;1.10;;;32.70;99.90;;;;;;4975236;28;20297;-74
2024/01/12 05:01:12;;;;;;;4.05;1.30;;;33.00;99.90;;;;;;4975644;28;20171;-75
2024/01/12 05:03:45;;;;;;;4.22;1.40;;;33.00;99.90;;;;;;4975763;28;20180;-75
2024/01/12 05:06:12;;;;;;;5.97;1.35;;;32.90;99.90;;;;;;4975641;28;20171;-75
2024/01/12 05:08:39;;;;;;;5.88;1.58;;;32.90;99.90;;;;;;4975638;28;20573;-75
2024/01/12 05:11:06;;;;;;;6.53;1.33;;;32.80;99.90;;;;;;4975590;28;20190;-74
2024/01/12 05:13:34;;;;;;;11.38;1.75;;;32.70;99.90;;;;;;4975482;28;20194;-75
2024/01/12 05:16:01;;;;;;;7.95;1.30;;;32.70;99.90;;;;;;4975254;28;20279;-74
2024/01/12 05:18:29;;;;;;;5.90;1.40;;;32.90;99.90;;;;;;4974975;28;20214;-75
2024/01/12 05:20:56;;;;;;;5.97;1.52;;;32.90;99.90;;;;;;4974661;28;20243;-74
2024/01/12 05:23:23;;;;;;;5.70;1.55;;;32.80;99.90;;;;;;4975413;28;20183;-74
2024/01/12 05:25:51;;;;;;;6.60;1.55;;;32.60;99.90;;;;;;4975267;28;20180;-74
2024/01/12 05:28:18;;;;;;;6.68;1.50;;;32.70;99.90;;;;;;4975229;28;20197;-76
2024/01/12 05:30:45;;;;;;;7.35;1.30;;;32.50;99.90;;;;;;4975074;28;20230;-75
2024/01/12 05:33:13;;;;;;;6.88;1.65;;;32.00;99.90;;;;;;4973828;28;20194;-75
2024/01/12 05:35:40;;;;;;;9.95;1.40;;;32.00;99.90;;;;;;4978467;28;20187;-75
2024/01/12 05:38:08;;;;;;;5.47;1.35;;;32.10;99.90;;;;;;4975124;28;20207;-78
2024/01/12 05:40:36;;;;;;;7.38;1.92;;;32.00;99.90;;;;;;4952258;28;20267;-78
2024/01/12 05:43:03;;;;;;;9.23;1.65;;;32.20;99.90;;;;;;4971404;28;20210;-78
2024/01/12 05:45:30;;;;;;;6.63;1.75;;;32.10;99.90;;;;;;4971825;28;20198;-76
2024/01/12 05:47:58;;;;;;;8.20;1.65;;;32.20;99.90;;;;;;4960805;28;20184;-75
2024/01/12 05:50:25;;;;;;;6.80;1.50;;;32.00;99.90;;;;;;4973483;28;20191;-75
2024/01/12 05:52:52;;;;;;;8.30;1.73;;;31.90;99.90;;;;;;4965756;28;20184;-75
2024/01/12 05:55:20;;;;;;;9.43;1.85;;;32.00;99.90;;;;;;4953256;29;20184;-77
2024/01/12 05:57:47;;;;;;;6.60;1.65;;;32.00;99.90;;;;;;4952720;28;20255;-76
2024/01/12 06:00:15;;;;;;;11.00;1.55;;;32.00;99.90;;;;;;4953324;28;20184;-76
2024/01/12 06:02:42;;;;;;;7.70;1.88;;;31.80;99.90;;;;;;4970255;28;20282;-75
2024/01/12 06:05:09;;;;;;;5.75;1.33;;;31.60;99.90;;;;;;4953665;28;20183;-75
2024/01/12 06:07:37;;;;;;;12.10;1.85;;;31.90;99.90;;;;;;4953634;28;20179;-77
2024/01/12 06:10:06;;;;;;;14.85;1.70;;;32.10;99.90;;;;;;4964429;28;20238;-74
2024/01/12 06:12:33;;;;;;;9.32;1.95;;;32.00;99.90;;;;;;4964806;28;20278;-76
2024/01/12 06:15:01;;;;;;;9.43;2.03;;;31.20;99.90;;;;;;4972950;28;20199;-75
2024/01/12 06:17:28;;;;;;;12.67;2.23;;;30.70;99.90;;;;;;4952966;28;20172;-75
2024/01/12 06:19:55;;;;;;;12.97;2.53;;;30.70;99.90;;;;;;4953408;28;20211;-75
2024/01/12 06:22:23;;;;;;;6.50;2.17;;;30.80;99.90;;;;;;4967253;28;20262;-78
2024/01/12 06:24:50;;;;;;;7.00;1.70;;;31.10;99.90;;;;;;4971912;28;20191;-75
2024/01/12 06:27:17;;;;;;;7.23;1.70;;;31.10;99.90;;;;;;4972730;28;20194;-76
2024/01/12 06:29:45;;;;;;;16.53;2.37;;;30.90;99.90;;;;;;4973704;28;20242;-77
2024/01/12 06:32:12;;;;;;;11.40;1.80;;;30.90;99.90;;;;;;4974498;28;20323;-78
2024/01/12 06:34:40;;;;;;;8.70;1.60;;;30.80;99.90;;;;;;4958721;28;20530;-77
2024/01/12 06:37:07;;;;;;;10.00;1.60;;;30.90;99.90;;;;;;4957733;28;20707;-75
2024/01/12 06:39:35;;;;;;;9.70;2.20;;;30.40;99.90;;;;;;4957432;28;20225;-75
2024/01/12 06:42:02;;;;;;;9.77;2.03;;;30.30;99.90;;;;;;4957756;28;20180;-77
2024/01/12 06:44:29;;;;;;;14.40;2.57;;;30.20;99.90;;;;;;4964975;28;20187;-76
2024/01/12 06:46:57;;;;;;;7.33;2.10;;;30.30;99.90;;;;;;4967756;28;20665;-77
2024/01/12 06:49:24;;;;;;;7.63;1.80;;;30.50;99.90;;;;;;4968661;28;20191;-76
2024/01/12 06:51:51;;;;;;;9.47;1.80;;;30.10;99.90;;;;;;4975106;28;20767;-78
2024/01/12 06:54:19;;;;;;;10.00;2.00;;;30.30;99.90;;;;;;4962050;28;20206;-76
2024/01/12 06:56:46;;;;;;;9.87;2.20;;;30.20;99.90;;;;;;4957482;28;20196;-78
2024/01/12 06:59:14;;;;;;;9.77;2.43;;;30.00;99.90;;;;;;4964580;28;20246;-77
2024/01/12 07:01:41;;;;;;;14.03;2.17;;;30.10;99.90;;;;;;4964347;28;20432;-76
2024/01/12 07:04:08;;;;;;;16.07;2.37;;;29.90;99.90;;;;;;4974401;28;20211;-79
2024/01/12 07:06:36;;;;;;;11.57;2.20;;;29.70;99.90;;;;;;4974379;28;20179;-74
2024/01/12 07:09:04;;;;;;;6.47;1.80;;;29.40;99.90;;;;;;4969483;28;20184;-76
2024/01/12 07:11:31;;;;;;;16.60;2.87;;;29.20;99.90;;;;;;4958286;28;20200;-76
2024/01/12 07:13:59;;;;;;;14.70;2.43;;;28.90;99.90;;;;;;4961969;28;20572;-76
2024/01/12 07:16:26;;;;;;;11.23;2.23;;;28.80;99.90;;;;;;4962492;28;20195;-74
2024/01/12 07:18:53;;;;;;;14.03;2.23;;;28.70;99.90;;;;;;4972079;28;20588;-76
2024/01/12 07:21:21;;;;;;;11.07;2.47;;;28.50;99.90;;;;;;4971510;28;20232;-74
2024/01/12 07:23:48;;;;;;;12.10;1.67;;;28.60;99.90;;;;;;4956355;28;20191;-74
2024/01/12 07:26:15;;;;;;;8.30;2.23;;;28.70;99.90;;;;;;4956945;28;20267;-75
2024/01/12 07:28:42;;;;;;;10.17;2.27;;;28.70;99.90;;;;;;4964932;28;20617;-74
2024/01/12 07:31:10;;;;;;;13.07;2.50;;;28.80;99.90;;;;;;4975409;28;20186;-75
2024/01/12 07:33:37;;;;;;;13.13;2.33;;;28.80;99.90;;;;;;4975561;28;20580;-75
2024/01/12 07:36:05;;;;;;;13.87;3.03;;;28.80;99.90;;;;;;4973229;28;20201;-75
2024/01/12 07:38:32;;;;;;;11.43;1.80;;;28.90;99.90;;;;;;4962812;28;20234;-75
2024/01/12 07:41:54;;;;;;;10.13;2.50;;;28.90;99.90;;;;;;4974980;28;20184;-75
2024/01/12 07:44:22;;;;;;;17.97;2.77;;;29.00;99.90;;;;;;4963327;28;20188;-76
2024/01/12 07:46:49;;;;;;;13.87;2.10;;;29.00;99.90;;;;;;4956938;28;20327;-77
2024/01/12 07:49:16;;;;;;;12.93;2.50;;;28.80;99.90;;;;;;4963296;28;20612;-75
2024/01/12 07:51:44;;;;;;;8.97;2.33;;;28.50;99.90;;;;;;4956086;28;20594;-76
2024/01/12 07:54:12;;;;;;;11.90;2.27;;;28.50;99.90;;;;;;4957279;28;20562;-74
2024/01/12 07:56:39;;;;;;;17.77;2.57;;;28.40;99.90;;;;;;4968527;28;20184;-77
2024/01/12 07:59:06;;;;;;;12.57;2.70;;;28.20;99.90;;;;;;4970736;28;20219;-78
2024/01/12 08:01:34;;;;;;;14.97;2.90;;;27.90;99.90;;;;;;4966276;28;20184;-77
2024/01/12 08:04:01;;;;;;;12.03;2.47;;;27.60;99.90;;;;;;4956033;28;20219;-75
2024/01/12 08:06:28;;;;;;;14.43;2.60;;;27.40;99.90;;;;;;4963720;28;20172;-75
2024/01/12 08:08:55;;;;;;;13.27;2.93;;;27.60;99.90;;;;;;4964306;28;20191;-76
2024/01/12 08:11:23;;;;;;;7.10;2.30;;;27.60;99.90;;;;;;4957258;28;20192;-75
2024/01/12 08:13:50;;;;;;;8.77;2.43;;;27.60;99.90;;;;;;4957463;28;20208;-74
2024/01/12 08:16:18;;;;;;;9.80;2.20;;;27.50;99.90;;;;;;4957300;28;20190;-75
2024/01/12 08:18:45;;;;;;;13.50;2.40;;;27.50;99.90;;;;;;4956692;28;20290;-74
2024/01/12 08:21:12;;;;;;;16.03;3.30;;;27.30;99.90;;;;;;4956846;28;20264;-75
2024/01/12 08:23:39;;;;;;;14.47;2.80;;;27.30;99.90;;;;;;4955842;29;20709;-76
2024/01/12 08:26:07;;;;;;;14.20;3.03;;;27.10;99.90;;;;;;4961761;28;20187;-75
2024/01/12 08:28:34;;;;;;;14.53;3.07;;;26.90;99.90;;;;;;4974036;28;20191;-77
2024/01/12 08:31:03;;;;;;;10.33;2.30;;;26.90;99.90;;;;;;4960604;28;20539;-75
2024/01/12 08:33:31;;;;;;;14.43;2.50;;;26.80;99.90;;;;;;4955515;28;20176;-75
2024/01/12 08:35:58;;;;;;;17.83;3.33;;;26.90;99.90;;;;;;4955991;29;20176;-77
2024/01/12 08:38:25;;;;;;;11.20;2.70;;;26.80;99.90;;;;;;4961727;28;20208;-75
2024/01/12 08:40:53;;;;;;;17.93;2.73;;;26.80;99.90;;;;;;4955595;29;20271;-75
2024/01/12 08:43:20;;;;;;;11.17;2.30;;;26.70;99.90;;;;;;4956790;28;20172;-75
2024/01/12 08:45:47;;;;;;;9.50;1.87;;;26.50;99.90;;;;;;4956765;28;20180;-75
2024/01/12 08:48:15;;;;;;;11.53;2.87;;;26.40;99.90;;;;;;4957897;28;20180;-75
2024/01/12 08:50:42;;;;;;;16.33;2.37;;;26.40;99.90;;;;;;4957293;28;20180;-75
2024/01/12 08:53:10;;;;;;;11.80;2.43;;;26.20;99.90;;;;;;4957327;28;20270;-75
2024/01/12 08:55:37;;;;;;;15.37;2.93;;;26.20;99.90;;;;;;4955604;28;20239;-75
2024/01/12 08:58:04;;;;;;;9.77;2.33;;;26.10;99.90;;;;;;4957376;28;20230;-75
2024/01/12 09:00:32;;;;;;;15.80;2.70;;;26.00;99.90;;;;;;4963246;28;20195;-76
2024/01/12 09:03:02;;;;;;;11.87;3.10;;;25.90;99.90;;;;;;4975409;28;20589;-76
2024/01/12 09:05:29;;;;;;;11.77;2.33;;;25.80;99.90;;;;;;4971162;28;20184;-75
2024/01/12 09:07:56;;;;;;;21.47;2.50;;;25.70;99.90;;;;;;4958870;28;20275;-76
2024/01/12 09:10:24;;;;;;;15.80;2.80;;;25.60;99.90;;;;;;4956331;29;20187;-76
2024/01/12 09:12:51;;;;;;;13.73;2.20;;;25.70;99.90;;;;;;4960891;28;20212;-76
2024/01/12 09:15:18;;;;;;;15.53;3.00;;;25.60;99.90;;;;;;4976684;28;20210;-76
2024/01/12 09:17:45;;;;;;;11.80;2.30;;;25.60;99.90;;;;;;4974473;28;20214;-76
2024/01/12 09:20:13;;;;;;;12.23;2.87;;;25.50;99.90;;;;;;4975755;28;20712;-76
2024/01/12 09:22:40;;;;;;;12.30;2.87;;;25.40;99.90;;;;;;4973861;28;20222;-76
2024/01/12 09:25:08;;;;;;;17.37;2.57;;;25.50;99.90;;;;;;4974427;28;20175;-76
2024/01/12 09:27:35;;;;;;;15.70;2.60;;;25.40;99.90;;;;;;4975991;28;20172;-77
2024/01/12 09:30:03;;;;;;;16.93;2.63;;;25.40;99.90;;;;;;4975466;28;20186;-76
2024/01/12 09:32:30;;;;;;;16.50;2.43;;;25.30;99.90;;;;;;4974284;28;20549;-75
2024/01/12 09:34:58;;;;;;;17.67;2.40;;;25.30;99.90;;;;;;4975232;28;20176;-76
2024/01/12 09:37:25;;;;;;;18.37;3.13;;;25.30;99.90;;;;;;4975430;28;20179;-76
2024/01/12 09:39:52;;;;;;;17.20;2.50;;;25.20;99.90;;;;;;4975100;28;20751;-75
2024/01/12 09:42:24;;;;;;;14.53;2.77;;;25.20;99.90;;;;;;4975169;28;20226;-76
2024/01/12 09:44:52;;;;;;;13.23;2.50;;;25.20;99.90;;;;;;4989811;28;20195;-76
2024/01/12 09:47:19;;;;;;;15.73;2.87;;;25.10;99.90;;;;;;4973791;28;20176;-76
2024/01/12 09:49:47;;;;;;;14.33;3.13;;;25.10;99.90;;;;;;4973907;28;20187;-76
2024/01/12 09:52:14;;;;;;;15.73;2.50;;;25.10;99.90;;;;;;4975354;28;20213;-76
2024/01/12 09:54:42;;;;;;;16.83;3.10;;;25.00;99.90;;;;;;4974948;28;20544;-80
2024/01/12 09:57:11;;;;;;;15.00;2.57;;;25.00;99.90;;;;;;4964296;28;20190;-75
2024/01/12 09:59:39;;;;;;;12.90;2.57;;;25.00;99.90;;;;;;4973488;28;20224;-75
2024/01/12 10:02:13;;;;;;;10.90;2.73;;;25.00;99.90;;;;;;4969500;28;20239;-75
2024/01/12 10:04:40;;;;;;;12.67;2.30;;;24.90;99.90;;;;;;4955754;29;20561;-76
2024/01/12 10:07:08;;;;;;;11.93;3.07;;;24.80;99.90;;;;;;4954998;28;20176;-75
2024/01/12 10:09:35;;;;;;;14.17;2.43;;;24.80;99.90;;;;;;4970978;28;20564;-74
2024/01/12 10:12:02;;;;;;;11.33;2.47;;;24.70;99.90;;;;;;4974626;28;20179;-74
2024/01/12 10:14:30;;;;;;;17.33;2.63;;;24.80;99.90;;;;;;4974958;28;20175;-75
2024/01/12 10:16:58;;;;;;;10.50;2.73;;;24.70;99.90;;;;;;4974704;28;20179;-75
2024/01/12 10:19:26;;;;;;;19.60;3.43;;;24.70;99.90;;;;;;4974603;28;20302;-74
2024/01/12 10:21:53;;;;;;;15.77;2.57;;;24.70;99.90;;;;;;4974386;28;20603;-75
2024/01/12 10:24:24;;;;;;;13.70;2.40;;;24.70;99.90;;;;;;4948560;28;20209;-73
2024/01/12 10:26:52;;;;;;;19.30;3.67;;;24.70;99.90;;;;;;4953058;28;20262;-77
2024/01/12 10:29:20;;;;;;;12.60;2.53;;;24.70;99.90;;;;;;4955042;28;20187;-75
2024/01/12 10:31:48;;;;;;;15.27;3.27;;;24.70;99.90;;;;;;4955152;28;20179;-75
2024/01/12 10:34:15;;;;;;;13.97;2.97;;;24.70;99.90;;;;;;4954854;28;20268;-77
2024/01/12 10:36:43;;;;;;;15.17;2.77;;;24.60;99.90;;;;;;4954961;28;20180;-76
2024/01/12 10:39:13;;;;;;;15.13;2.80;;;24.50;99.90;;;;;;4955126;28;20234;-75
2024/01/12 10:41:41;;;;;;;12.17;2.50;;;24.40;99.90;;;;;;4954862;28;20633;-75
2024/01/12 10:44:09;;;;;;;14.93;2.97;;;24.30;99.90;;;;;;4955089;28;20188;-79
2024/01/12 10:46:48;;;;;;;15.17;2.90;;;24.20;99.90;;;;;;4953508;29;20246;-77
2024/01/12 10:49:26;;;;;;;10.83;2.90;;;24.20;99.90;;;;;;4955329;28;20190;-77
2024/01/12 10:52:08;;;;;;;15.50;3.20;;;24.40;99.90;;;;;;4955387;28;20176;-76
2024/01/12 10:54:58;;;;;;;15.73;2.97;;;24.30;99.90;;;;;;4955104;28;20184;-79
2024/01/12 10:57:30;;;;;;;19.53;3.63;;;24.40;99.90;;;;;;4954990;28;20184;-76
2024/01/12 10:59:58;;;;;;;14.40;2.90;;;24.30;99.90;;;;;;4954914;28;20612;-76
2024/01/12 11:02:26;;;;;;;11.90;2.60;;;24.20;99.90;;;;;;4955524;28;20590;-74
2024/01/12 11:04:57;;;;;;;14.80;2.93;;;24.10;99.90;;;;;;4954864;28;20545;-73
2024/01/12 11:07:26;;;;;;;12.90;2.87;;;24.00;99.90;;;;;;4954707;28;20211;-77
2024/01/12 11:09:55;;;;;;;15.47;2.40;;;23.90;99.90;;;;;;4955579;28;20179;-74
2024/01/12 11:12:32;;;;;;;16.83;3.17;;;23.80;99.90;;;;;;4954799;28;20649;-74
2024/01/12 11:15:00;;;;;;;15.87;3.23;;;23.90;99.90;;;;;;4954796;28;20179;-74
2024/01/12 11:20:59;;;;;;;9.47;2.37;;;23.90;99.90;;;;;;4957697;29;20339;-75
2024/01/12 11:23:26;;;;;;;11.37;2.80;;;23.80;99.90;;;;;;4958553;28;20259;-75
2024/01/12 11:25:54;;;;;;;16.33;2.97;;;23.80;99.90;;;;;;4957075;29;20188;-74
2024/01/12 11:28:21;;;;;;;16.87;3.30;;;23.80;99.90;;;;;;4958284;28;20564;-78
2024/01/12 11:30:53;;;;;;;15.40;2.87;;;23.80;99.90;;;;;;4958284;28;20208;-77
2024/01/12 11:33:20;;;;;;;14.43;2.93;;;23.80;99.90;;;;;;4958362;28;20172;-74
2024/01/12 11:35:51;;;;;;;19.73;3.23;;;23.80;99.90;;;;;;4958163;28;20179;-74
2024/01/12 11:38:19;;;;;;;15.67;2.87;;;23.80;99.90;;;;;;4958151;28;20215;-74
2024/01/12 11:40:49;;;;;;;19.10;2.93;;;23.70;99.90;;;;;;4958058;28;20199;-78
2024/01/12 11:43:18;;;;;;;17.33;3.53;;;23.60;99.90;;;;;;4957960;28;20673;-73
2024/01/12 11:45:45;;;;;;;19.20;3.20;;;23.60;99.90;;;;;;4957938;28;20259;-78
2024/01/12 11:48:16;;;;;;;16.40;2.93;;;23.60;99.90;;;;;;4959828;28;20607;-78
2024/01/12 11:50:43;;;;;;;20.50;3.20;;;23.50;99.90;;;;;;4969034;28;20183;-79
2024/01/12 11:53:11;;;;;;;16.67;3.00;;;23.50;99.90;;;;;;4968415;28;20184;-74
2024/01/12 11:55:40;;;;;;;22.47;3.13;;;23.50;99.90;;;;;;4967392;28;20555;-73
2024/01/12 11:58:07;;;;;;;12.23;2.37;;;23.50;99.90;;;;;;4963613;28;20183;-75
2024/01/12 12:00:34;;;;;;;22.03;3.47;;;23.40;99.90;;;;;;4967686;28;20657;-75
2024/01/12 12:03:02;;;;;;;17.13;2.67;;;23.40;99.90;;;;;;4958091;28;20540;-74
2024/01/12 12:05:30;;;;;;;18.07;3.43;;;23.30;99.90;;;;;;4967328;28;20192;-74
2024/01/12 12:07:57;;;;;;;16.37;3.07;;;23.30;99.90;;;;;;4957847;28;20235;-78
2024/01/12 12:10:25;;;;;;;10.23;2.63;;;23.30;99.90;;;;;;4969361;28;20222;-74
2024/01/12 12:12:53;;;;;;;19.60;3.07;;;23.30;99.90;;;;;;4976894;28;20633;-78
2024/01/12 12:15:20;;;;;;;24.27;4.00;;;23.20;99.90;;;;;;4966117;28;20194;-78
2024/01/12 12:17:49;;;;;;;15.37;2.60;;;23.20;99.90;;;;;;4971433;28;20180;-74
2024/01/12 12:20:16;;;;;;;15.97;2.90;;;23.10;99.90;;;;;;4957108;28;20666;-79
2024/01/12 12:22:46;;;;;;;13.00;3.10;;;23.10;99.90;;;;;;4958735;28;20224;-74
2024/01/12 12:25:17;;;;;;;12.30;2.70;;;23.10;99.90;;;;;;4962691;28;20627;-74
2024/01/12 12:27:49;;;;;;;20.93;3.40;;;23.10;99.90;;;;;;4970653;28;20188;-74
2024/01/12 12:30:17;;;;;;;14.83;3.30;;;23.10;99.90;;;;;;4961159;28;20199;-74
2024/01/12 12:32:47;;;;;;;11.17;2.33;;;23.00;99.90;;;;;;4963723;28;20195;-76
2024/01/12 12:35:17;;;;;;;18.30;3.03;;;22.90;99.90;;;;;;4966165;28;20191;-74
2024/01/12 12:37:48;;;;;;;21.03;3.50;;;22.90;99.90;;;;;;4969573;28;20234;-74
2024/01/12 12:40:16;;;;;;;14.13;2.53;;;22.90;99.90;;;;;;4960099;28;20228;-74
2024/01/12 12:42:46;;;;;;;12.43;2.70;;;22.90;99.90;;;;;;4962378;28;20212;-75
2024/01/12 12:45:14;;;;;;;8.40;2.83;;;22.80;99.90;;;;;;4976355;28;20214;-73
2024/01/12 12:47:41;;;;;;;11.63;2.73;;;22.80;99.90;;;;;;4955582;28;20207;-77
2024/01/12 12:50:10;;;;;;;13.70;3.40;;;22.70;99.90;;;;;;4958381;28;20184;-74
2024/01/12 12:52:42;;;;;;;14.50;3.07;;;22.70;99.90;;;;;;4956791;28;20183;-74
2024/01/12 12:55:10;;;;;;;14.77;3.07;;;22.60;99.90;;;;;;4956758;28;20187;-74
2024/01/12 12:57:38;;;;;;;18.83;2.83;;;22.60;99.90;;;;;;4956657;28;20183;-74
2024/01/12 13:00:09;;;;;;;21.23;2.90;;;22.60;99.90;;;;;;4956398;28;20578;-78
2024/01/12 13:02:38;;;;;;;15.67;2.67;;;22.60;99.90;;;;;;4956400;28;20202;-73
2024/01/12 13:05:06;;;;;;;13.60;2.53;;;22.50;99.90;;;;;;4960886;28;20716;-74